Time;durP1;ratioP1;P1;durP2;ratioP2;P2;SDS_P1;SDS_P2;PMS_P1;PMS_P2;Temp;Humidity;BMP_temperature;BMP_pressure;BME280_temperature;BME280_humidity;BME280_pressure;Samples;Min_cycle;Max_cycle;Signal;HPM_P1;HPM_P2
2024/01/29 00:02:26;;;;;;;11.38;2.25;;;;;;;8.22;95.50;101109.69;5028759;28;20041;-64
2024/01/29 00:04:53;;;;;;;11.75;2.20;;;;;;;8.22;95.56;101113.28;5028831;28;20450;-63
2024/01/29 00:07:21;;;;;;;7.70;2.25;;;;;;;8.20;95.43;101107.28;5028194;28;20065;-64
2024/01/29 00:09:49;;;;;;;10.32;3.45;;;;;;;8.15;95.33;101106.59;5027962;28;20530;-63
2024/01/29 00:12:17;;;;;;;11.98;2.45;;;;;;;8.13;95.36;101108.88;5028277;28;20136;-63
2024/01/29 00:14:45;;;;;;;12.43;2.53;;;;;;;8.11;95.40;101113.88;5028994;28;20049;-64
2024/01/29 00:17:12;;;;;;;12.50;2.85;;;;;;;8.09;95.32;101125.25;5028990;28;20057;-63
2024/01/29 00:19:39;;;;;;;15.63;2.33;;;;;;;8.08;95.57;101115.31;5022940;28;20258;-63
2024/01/29 00:22:07;;;;;;;12.60;3.00;;;;;;;8.06;95.50;101125.06;5028483;28;20403;-62
2024/01/29 00:24:35;;;;;;;12.05;2.88;;;;;;;8.03;95.49;101147.75;5028426;28;20503;-61
2024/01/29 00:27:02;;;;;;;10.77;2.50;;;;;;;7.98;95.58;101149.53;5028163;28;20037;-61
2024/01/29 00:29:30;;;;;;;9.88;2.45;;;;;;;7.92;95.56;101145.28;5018409;28;20057;-62
2024/01/29 00:31:58;;;;;;;6.15;2.05;;;;;;;7.91;95.61;101143.66;5026057;28;20619;-62
2024/01/29 00:34:26;;;;;;;10.27;2.55;;;;;;;7.91;95.98;101138.16;5028127;28;20045;-61
2024/01/29 00:36:54;;;;;;;11.13;3.13;;;;;;;7.93;95.94;101149.66;5028010;28;20060;-61
2024/01/29 00:39:21;;;;;;;13.88;2.55;;;;;;;7.92;96.03;101153.53;5028173;28;20044;-61
2024/01/29 00:41:49;;;;;;;11.73;2.53;;;;;;;7.93;96.26;101157.94;5011336;28;20050;-61
2024/01/29 00:44:17;;;;;;;13.38;4.13;;;;;;;7.91;96.15;101162.97;5020044;28;20057;-61
2024/01/29 00:46:44;;;;;;;13.45;2.40;;;;;;;7.91;96.28;101159.38;5028223;28;20065;-61
2024/01/29 00:49:12;;;;;;;12.25;2.55;;;;;;;7.89;96.35;101150.59;5028336;28;20427;-61
2024/01/29 00:51:40;;;;;;;12.13;2.30;;;;;;;7.90;96.52;101157.75;5027947;28;20049;-61
2024/01/29 00:54:07;;;;;;;13.82;4.47;;;;;;;7.89;96.48;101156.09;4997760;28;20534;-62
2024/01/29 00:56:35;;;;;;;13.25;3.17;;;;;;;7.88;96.59;101149.81;5009391;28;20140;-61
2024/01/29 00:59:02;;;;;;;8.48;2.30;;;;;;;7.89;96.66;101145.91;5027771;28;20511;-63
2024/01/29 01:01:30;;;;;;;15.32;2.35;;;;;;;7.90;96.76;101158.56;4999223;28;20049;-62
2024/01/29 01:03:57;;;;;;;11.90;3.47;;;;;;;7.90;96.81;101152.22;5021765;28;20049;-62
2024/01/29 01:06:25;;;;;;;13.50;5.65;;;;;;;7.90;96.97;101164.09;5020685;28;20053;-61
2024/01/29 01:08:52;;;;;;;15.07;3.38;;;;;;;7.90;97.35;101158.56;5026916;28;20053;-61
2024/01/29 01:11:20;;;;;;;9.35;2.55;;;;;;;7.88;97.21;101155.31;5032264;28;20056;-62
2024/01/29 01:13:49;;;;;;;15.05;2.92;;;;;;;7.88;97.24;101155.31;5017877;28;20049;-61
2024/01/29 01:16:17;;;;;;;11.30;3.53;;;;;;;7.86;97.29;101141.03;5020130;28;20045;-61
2024/01/29 01:18:44;;;;;;;11.20;2.47;;;;;;;7.82;97.23;101155.75;5027476;28;20057;-61
2024/01/29 01:21:12;;;;;;;12.00;2.55;;;;;;;7.81;97.41;101160.47;5027079;28;20051;-61
2024/01/29 01:23:39;;;;;;;17.70;4.13;;;;;;;7.80;97.49;101145.06;5027456;28;20057;-61
2024/01/29 01:26:07;;;;;;;15.43;2.47;;;;;;;7.77;97.60;101142.94;5027632;28;20084;-61
2024/01/29 01:28:34;;;;;;;12.63;2.80;;;;;;;7.77;97.68;101151.22;5025422;28;20050;-62
2024/01/29 01:31:02;;;;;;;10.82;2.60;;;;;;;7.76;97.89;101152.31;5001096;28;20155;-61
2024/01/29 01:33:29;;;;;;;8.82;2.15;;;;;;;7.74;97.87;101148.25;5026356;28;20049;-61
2024/01/29 01:35:56;;;;;;;13.80;2.60;;;;;;;7.70;97.75;101153.63;5026948;28;20038;-61
2024/01/29 01:38:24;;;;;;;18.50;3.38;;;;;;;7.68;98.02;101153.09;5025487;28;20061;-61
2024/01/29 01:40:51;;;;;;;16.20;3.05;;;;;;;7.65;98.02;101150.19;5026540;28;20053;-61
2024/01/29 01:43:21;;;;;;;24.40;4.70;;;;;;;7.64;98.14;101152.09;5008112;28;20060;-61
2024/01/29 01:46:17;;;;;;;9.23;3.35;;;;;;;7.64;98.11;101157.63;5027694;28;20064;-61
2024/01/29 01:48:45;;;;;;;26.65;4.47;;;;;;;7.62;98.14;101151.63;5031089;28;20518;-61
2024/01/29 01:51:13;;;;;;;8.60;2.55;;;;;;;7.57;97.87;101160.00;5024707;28;20523;-62
2024/01/29 01:53:42;;;;;;;11.75;3.78;;;;;;;7.53;98.10;101164.53;5022161;28;20050;-61
2024/01/29 01:56:09;;;;;;;17.15;2.30;;;;;;;7.51;98.25;101171.47;5021877;28;20053;-61
2024/01/29 01:58:40;;;;;;;12.40;3.03;;;;;;;7.55;98.18;101178.78;5012139;28;20080;-61
2024/01/29 02:01:08;;;;;;;8.20;2.42;;;;;;;7.55;98.27;101184.28;5025460;28;20050;-61
2024/01/29 02:03:36;;;;;;;7.65;2.38;;;;;;;7.54;98.37;101188.19;5030944;28;20060;-61
2024/01/29 02:06:04;;;;;;;10.50;2.65;;;;;;;7.53;98.38;101192.06;5028853;28;20053;-61
2024/01/29 02:08:31;;;;;;;7.18;2.13;;;;;;;7.52;98.35;101195.94;5018966;28;20508;-61
2024/01/29 02:11:00;;;;;;;13.88;2.13;;;;;;;7.53;98.53;101202.28;5018731;28;20069;-61
2024/01/29 02:13:28;;;;;;;18.45;2.55;;;;;;;7.54;98.37;101210.25;5031673;28;20052;-61
2024/01/29 02:15:55;;;;;;;9.55;2.13;;;;;;;7.57;98.44;101219.81;5021473;28;20038;-61
2024/01/29 02:18:25;;;;;;;7.30;2.55;;;;;;;7.54;98.29;101213.00;5019355;28;20460;-63
2024/01/29 02:20:54;;;;;;;10.02;2.35;;;;;;;7.53;98.58;101214.13;5026012;28;20053;-64
2024/01/29 02:23:22;;;;;;;12.52;3.60;;;;;;;7.51;98.51;101213.63;5026340;28;20053;-64
2024/01/29 02:25:49;;;;;;;13.52;3.03;;;;;;;7.50;98.79;101211.97;5025170;28;20041;-64
2024/01/29 02:28:17;;;;;;;9.32;2.88;;;;;;;7.49;98.73;101224.16;5008679;28;20063;-63
2024/01/29 02:30:44;;;;;;;15.50;2.33;;;;;;;7.49;99.09;101221.38;5005494;28;20048;-62
2024/01/29 02:33:12;;;;;;;8.80;2.88;;;;;;;7.47;99.17;101220.88;5012686;28;20132;-63
2024/01/29 02:35:39;;;;;;;13.18;2.67;;;;;;;7.47;99.14;101223.63;5011018;28;20781;-62
2024/01/29 02:38:07;;;;;;;12.45;2.40;;;;;;;7.44;99.19;101226.22;5016940;28;20117;-62
2024/01/29 02:40:35;;;;;;;13.30;3.10;;;;;;;7.41;99.30;101226.81;5026279;28;20057;-62
2024/01/29 02:43:03;;;;;;;16.65;4.25;;;;;;;7.38;99.50;101225.50;5025215;28;20044;-62
2024/01/29 02:45:30;;;;;;;12.23;3.22;;;;;;;7.32;99.20;101232.25;5021462;28;20057;-62
2024/01/29 02:47:58;;;;;;;17.73;2.80;;;;;;;7.31;99.57;101236.13;5021414;28;20045;-62
2024/01/29 02:50:26;;;;;;;9.35;2.42;;;;;;;7.27;99.29;101233.19;5036453;28;20060;-62
2024/01/29 02:52:53;;;;;;;11.43;2.50;;;;;;;7.28;99.62;101228.50;5025422;28;20045;-62
2024/01/29 02:55:21;;;;;;;15.05;2.58;;;;;;;7.28;99.43;101236.78;5027083;28;20053;-61
2024/01/29 02:57:48;;;;;;;7.78;2.55;;;;;;;7.23;99.41;101231.34;5025610;28;20046;-61
2024/01/29 03:02:55;;;;;;;11.52;2.78;;;;;;;7.18;99.52;101251.56;4631377;22;20057;-61
2024/01/29 03:05:23;;;;;;;14.25;2.65;;;;;;;7.17;99.53;101251.91;5005219;28;20057;-62
2024/01/29 03:07:51;;;;;;;14.88;3.35;;;;;;;7.13;99.63;101253.63;5005090;28;20053;-61
2024/01/29 03:10:18;;;;;;;15.65;3.55;;;;;;;7.09;99.63;101247.13;4988746;28;20042;-61
2024/01/29 03:12:46;;;;;;;9.50;1.77;;;;;;;7.06;99.59;101248.56;5004845;28;20046;-62
2024/01/29 03:15:13;;;;;;;14.73;4.55;;;;;;;7.04;99.66;101242.53;4988681;28;20060;-61
2024/01/29 03:17:41;;;;;;;7.10;1.40;;;;;;;7.04;99.57;101247.25;5003004;28;20053;-61
2024/01/29 03:20:10;;;;;;;6.45;1.80;;;;;;;6.98;99.59;101246.53;5006092;28;20049;-62
2024/01/29 03:22:38;;;;;;;9.15;1.33;;;;;;;6.96;99.59;101248.78;5005179;28;20053;-61
2024/01/29 03:25:06;;;;;;;12.90;2.83;;;;;;;6.96;99.64;101242.47;5005999;28;20050;-61
2024/01/29 03:27:33;;;;;;;9.25;2.28;;;;;;;6.93;99.71;101245.84;5005443;28;20046;-61
2024/01/29 03:30:01;;;;;;;5.35;1.52;;;;;;;6.93;99.79;101241.16;5005471;28;20042;-62
2024/01/29 03:32:28;;;;;;;10.50;1.33;;;;;;;6.91;99.59;101235.13;5000156;28;20060;-60
2024/01/29 03:34:56;;;;;;;6.45;1.70;;;;;;;6.92;100.00;101234.00;5006115;28;20050;-61
2024/01/29 03:37:23;;;;;;;10.82;1.63;;;;;;;6.91;99.81;101237.06;5005668;28;20691;-61
2024/01/29 03:39:50;;;;;;;5.28;1.48;;;;;;;6.91;100.00;101224.09;5005536;28;20054;-60
2024/01/29 03:42:18;;;;;;;11.30;1.70;;;;;;;6.94;100.00;101228.19;5004903;28;20042;-61
2024/01/29 03:44:45;;;;;;;12.98;1.77;;;;;;;6.94;100.00;101223.50;5007385;28;20038;-61
2024/01/29 03:47:13;;;;;;;8.65;2.08;;;;;;;6.92;100.00;101219.41;5008920;28;20057;-61
2024/01/29 03:49:42;;;;;;;5.55;1.80;;;;;;;6.88;100.00;101212.91;5009675;28;20041;-61
2024/01/29 03:52:10;;;;;;;8.65;1.58;;;;;;;6.88;100.00;101207.41;5009092;28;20054;-61
2024/01/29 03:54:37;;;;;;;11.55;2.10;;;;;;;6.86;100.00;101215.97;5004979;28;20057;-61
2024/01/29 03:57:05;;;;;;;10.75;2.22;;;;;;;6.86;100.00;101215.97;5004676;28;20132;-61
2024/01/29 03:59:36;;;;;;;11.00;2.38;;;;;;;6.85;100.00;101208.03;4990694;28;20046;-61
2024/01/29 04:02:04;;;;;;;12.13;2.45;;;;;;;6.84;100.00;101220.97;4997857;28;20073;-62
2024/01/29 04:04:31;;;;;;;13.65;3.53;;;;;;;6.82;100.00;101214.97;4990238;28;20081;-62
2024/01/29 04:06:59;;;;;;;7.30;2.20;;;;;;;6.80;100.00;101208.13;4988591;28;20515;-62
2024/01/29 04:09:27;;;;;;;10.77;1.88;;;;;;;6.80;100.00;101219.97;4989699;28;20133;-61
2024/01/29 04:11:55;;;;;;;13.52;5.55;;;;;;;6.78;100.00;101210.41;4989940;28;20655;-61
2024/01/29 04:14:22;;;;;;;7.90;2.00;;;;;;;6.73;100.00;101216.81;4978143;28;20046;-61
2024/01/29 04:16:50;;;;;;;13.43;2.95;;;;;;;6.69;100.00;101221.31;4990465;28;20053;-62
2024/01/29 04:19:18;;;;;;;8.60;2.28;;;;;;;6.69;100.00;101232.31;4983930;28;20055;-62
2024/01/29 04:21:45;;;;;;;7.47;2.30;;;;;;;6.67;100.00;101235.34;4987957;28;20535;-61
2024/01/29 04:24:13;;;;;;;11.63;2.28;;;;;;;6.66;100.00;101236.50;4984333;28;20043;-61
2024/01/29 04:26:41;;;;;;;13.73;4.30;;;;;;;6.67;100.00;101229.06;4989354;28;20054;-62
2024/01/29 04:29:09;;;;;;;10.77;3.10;;;;;;;6.64;100.00;101230.50;4969462;28;20046;-61
2024/01/29 04:31:37;;;;;;;13.63;3.17;;;;;;;6.62;100.00;101235.47;4988454;28;20065;-62
2024/01/29 04:34:05;;;;;;;11.10;2.22;;;;;;;6.62;100.00;101240.97;4967274;28;20046;-61
2024/01/29 04:36:32;;;;;;;8.18;2.72;;;;;;;6.59;100.00;101238.81;4976184;28;20520;-61
2024/01/29 04:39:00;;;;;;;8.07;1.70;;;;;;;6.56;100.00;101239.47;4985036;28;20054;-61
2024/01/29 04:41:27;;;;;;;8.32;2.08;;;;;;;6.51;100.00;101242.28;4987070;28;20046;-61
2024/01/29 04:43:55;;;;;;;11.52;1.90;;;;;;;6.48;100.00;101247.59;4986696;28;20061;-61
2024/01/29 04:46:24;;;;;;;14.60;2.47;;;;;;;6.44;100.00;101250.13;4989896;28;20089;-61
2024/01/29 04:48:51;;;;;;;10.77;2.20;;;;;;;6.41;100.00;101241.66;4980143;28;20047;-61
2024/01/29 04:51:20;;;;;;;11.32;3.08;;;;;;;6.35;100.00;101249.22;4986689;28;20054;-60
2024/01/29 04:53:48;;;;;;;9.98;1.90;;;;;;;6.29;100.00;101255.13;4983831;28;20057;-60
2024/01/29 04:56:16;;;;;;;13.95;2.65;;;;;;;6.25;100.00;101257.66;4977458;28;20058;-60
2024/01/29 04:58:43;;;;;;;10.30;1.98;;;;;;;6.19;100.00;101250.66;4987202;28;20057;-60
2024/01/29 05:01:11;;;;;;;8.90;2.00;;;;;;;6.15;100.00;101255.09;4975321;28;20116;-60
2024/01/29 05:03:39;;;;;;;11.65;1.75;;;;;;;6.08;100.00;101260.19;5008468;28;20061;-60
2024/01/29 05:06:06;;;;;;;7.28;1.83;;;;;;;6.05;100.00;101249.78;5003786;28;20046;-62
2024/01/29 05:08:34;;;;;;;6.45;1.50;;;;;;;6.02;100.00;101262.22;4988987;28;20048;-60
2024/01/29 05:11:01;;;;;;;9.52;2.05;;;;;;;6.01;100.00;101262.53;5008059;28;20415;-60
2024/01/29 05:13:29;;;;;;;10.63;1.52;;;;;;;6.02;100.00;101264.13;5009322;28;20057;-61
2024/01/29 05:15:56;;;;;;;7.50;1.50;;;;;;;6.01;100.00;101257.03;5008342;28;20046;-60
2024/01/29 05:18:24;;;;;;;6.95;1.95;;;;;;;5.99;100.00;101272.97;5009987;28;20068;-61
2024/01/29 05:20:52;;;;;;;8.52;1.38;;;;;;;5.93;100.00;101285.19;4986785;28;20146;-61
2024/01/29 05:23:19;;;;;;;10.88;1.55;;;;;;;5.90;100.00;101277.56;5007430;28;20069;-61
2024/01/29 05:25:46;;;;;;;8.23;1.90;;;;;;;5.85;100.00;101283.16;4995918;28;20058;-61
2024/01/29 05:28:14;;;;;;;9.65;1.23;;;;;;;5.83;100.00;101290.81;5008389;28;20522;-61
2024/01/29 05:30:41;;;;;;;9.70;1.60;;;;;;;5.85;100.00;101294.13;5002029;28;20049;-61
2024/01/29 05:33:09;;;;;;;4.53;1.40;;;;;;;5.85;100.00;101291.38;5008317;28;20160;-61
2024/01/29 05:35:53;;;;;;;11.02;1.95;;;;;;;5.85;100.00;101296.88;4998725;28;20418;-61
2024/01/29 05:38:21;;;;;;;9.02;1.80;;;;;;;5.79;100.00;101295.28;5008714;28;20069;-62
2024/01/29 05:40:48;;;;;;;8.80;1.98;;;;;;;5.78;100.00;101304.63;5003403;28;20038;-60
2024/01/29 05:43:16;;;;;;;6.82;1.35;;;;;;;5.75;100.00;101299.75;5005745;28;20045;-61
2024/01/29 05:45:43;;;;;;;11.73;2.20;;;;;;;5.71;100.00;101298.72;4991326;28;20042;-60
2024/01/29 05:48:11;;;;;;;7.55;1.65;;;;;;;5.74;100.00;101304.44;5002857;28;20042;-61
2024/01/29 05:50:38;;;;;;;11.05;1.63;;;;;;;5.76;100.00;101304.13;5007011;28;20500;-61
2024/01/29 05:53:07;;;;;;;10.63;1.98;;;;;;;5.80;100.00;101303.22;4997979;28;20046;-62
2024/01/29 05:55:34;;;;;;;8.82;1.13;;;;;;;5.76;100.00;101306.88;5008582;28;20061;-60
2024/01/29 05:58:01;;;;;;;10.25;1.60;;;;;;;5.70;100.00;101308.06;5007872;28;20038;-61
2024/01/29 06:00:29;;;;;;;10.13;2.63;;;;;;;5.69;100.00;101309.19;5007067;28;20052;-61
2024/01/29 06:02:57;;;;;;;10.20;1.88;;;;;;;5.68;100.00;101304.81;5008269;28;20072;-60
2024/01/29 06:05:24;;;;;;;8.63;1.83;;;;;;;5.68;100.00;101300.13;5007768;28;20053;-61
2024/01/29 06:07:54;;;;;;;12.40;1.95;;;;;;;5.67;100.00;101301.25;5007365;28;20057;-60
2024/01/29 06:10:21;;;;;;;11.73;1.48;;;;;;;5.59;100.00;101301.91;5007403;28;20053;-61
2024/01/29 06:12:49;;;;;;;4.18;1.50;;;;;;;5.57;100.00;101306.06;5002580;28;20054;-61
2024/01/29 06:15:16;;;;;;;9.25;1.48;;;;;;;5.57;100.00;101308.81;5006873;28;20439;-61
2024/01/29 06:17:44;;;;;;;9.02;2.50;;;;;;;5.54;100.00;101304.75;5007287;28;20692;-61
2024/01/29 06:20:12;;;;;;;5.78;1.00;;;;;;;5.51;100.00;101308.06;5004125;28;20042;-61
2024/01/29 06:22:46;;;;;;;8.45;2.35;;;;;;;5.48;100.00;101304.00;5007756;28;20058;-60
2024/01/29 06:25:17;;;;;;;10.05;1.10;;;;;;;5.41;100.00;101300.81;5003524;28;20105;-60
2024/01/29 06:27:44;;;;;;;9.43;1.45;;;;;;;5.38;100.00;101295.09;5007235;28;20041;-60
2024/01/29 06:30:14;;;;;;;3.58;1.15;;;;;;;5.36;100.00;101303.66;5007435;28;20566;-62
2024/01/29 06:32:42;;;;;;;10.23;1.60;;;;;;;5.36;100.00;101302.81;4990016;28;20085;-61
2024/01/29 06:35:10;;;;;;;9.07;1.45;;;;;;;5.32;100.00;101301.78;5005385;28;20049;-61
2024/01/29 06:37:38;;;;;;;6.50;1.10;;;;;;;5.31;100.00;101305.66;5006692;28;20056;-60
2024/01/29 06:40:08;;;;;;;9.35;2.58;;;;;;;5.29;100.00;101319.69;5007345;28;20057;-61
2024/01/29 06:42:35;;;;;;;6.60;1.73;;;;;;;5.28;100.00;101318.03;5007450;28;20046;-61
2024/01/29 06:45:04;;;;;;;4.00;1.00;;;;;;;5.26;100.00;101322.19;5003476;28;20046;-62
2024/01/29 06:47:32;;;;;;;6.22;1.45;;;;;;;5.25;100.00;101321.38;5005912;28;20049;-61
2024/01/29 06:49:59;;;;;;;9.18;1.00;;;;;;;5.22;100.00;101330.19;5001876;28;20038;-61
2024/01/29 06:52:27;;;;;;;6.82;0.93;;;;;;;5.22;100.00;101324.69;4994997;28;20051;-62
2024/01/29 06:54:55;;;;;;;11.75;1.10;;;;;;;5.18;100.00;101318.19;5007225;28;20046;-60
2024/01/29 06:57:23;;;;;;;6.50;1.15;;;;;;;5.18;100.00;101317.34;4996792;28;20050;-61
2024/01/29 06:59:50;;;;;;;5.30;1.10;;;;;;;5.13;100.00;101323.75;5006951;28;20049;-61
2024/01/29 07:02:18;;;;;;;5.25;1.27;;;;;;;5.12;100.00;101321.28;5006202;28;20046;-61
2024/01/29 07:04:45;;;;;;;8.82;1.30;;;;;;;5.09;100.00;101317.19;5006455;28;20061;-61
2024/01/29 07:07:13;;;;;;;3.33;1.23;;;;;;;5.10;100.00;101327.06;5005365;28;20053;-61
2024/01/29 07:09:40;;;;;;;7.35;1.05;;;;;;;5.11;100.00;101331.44;5006426;28;20069;-60
2024/01/29 07:12:08;;;;;;;4.57;1.20;;;;;;;5.12;100.00;101333.06;5007406;28;20627;-61
2024/01/29 07:14:35;;;;;;;7.07;1.00;;;;;;;5.13;100.00;101333.91;5007072;28;20542;-62
2024/01/29 07:17:08;;;;;;;5.60;1.05;;;;;;;5.12;100.00;101332.25;5006440;28;20440;-61
2024/01/29 07:19:35;;;;;;;5.72;0.88;;;;;;;5.13;100.00;101331.97;5006904;28;20072;-62
2024/01/29 07:22:04;;;;;;;11.52;3.55;;;;;;;5.13;100.00;101326.50;5009275;28;20050;-61
2024/01/29 07:24:33;;;;;;;5.10;1.27;;;;;;;5.12;100.00;101326.75;5009598;28;20073;-61
2024/01/29 07:27:01;;;;;;;4.82;1.30;;;;;;;5.11;100.00;101325.16;5007642;28;20050;-62
2024/01/29 07:29:29;;;;;;;3.58;1.42;;;;;;;5.14;100.00;101335.50;5010622;28;20057;-61
2024/01/29 07:31:58;;;;;;;6.45;1.63;;;;;;;5.14;100.00;101339.09;5009688;28;20384;-61
2024/01/29 07:34:26;;;;;;;5.47;1.17;;;;;;;5.16;100.00;101336.88;5008430;28;20619;-61
2024/01/29 07:36:54;;;;;;;5.00;0.95;;;;;;;5.16;100.00;101336.06;5006315;28;20045;-62
2024/01/29 07:39:22;;;;;;;7.95;1.33;;;;;;;5.17;100.00;101323.94;5015059;28;20050;-61
2024/01/29 07:41:49;;;;;;;5.90;0.85;;;;;;;5.14;100.00;101328.09;5010025;28;20507;-61
2024/01/29 07:44:17;;;;;;;3.22;0.77;;;;;;;5.14;100.00;101330.03;5012947;28;20050;-61
2024/01/29 07:46:44;;;;;;;12.32;2.47;;;;;;;5.15;100.00;101326.19;5009032;28;20049;-61
2024/01/29 07:49:12;;;;;;;3.20;1.00;;;;;;;5.17;100.00;101333.00;5010219;28;20530;-60
2024/01/29 07:51:40;;;;;;;4.53;1.00;;;;;;;5.20;100.00;101335.16;5009561;28;20137;-61
2024/01/29 07:54:08;;;;;;;2.97;0.57;;;;;;;5.20;100.00;101326.09;5009279;28;20504;-60
2024/01/29 07:56:38;;;;;;;1.40;0.60;;;;;;;5.21;100.00;101331.31;5008598;28;20061;-60
2024/01/29 07:59:06;;;;;;;4.57;0.88;;;;;;;5.19;100.00;101336.25;5009689;28;20052;-60
2024/01/29 08:01:33;;;;;;;6.50;0.88;;;;;;;5.18;100.00;101348.38;5009536;28;20062;-60
2024/01/29 08:04:01;;;;;;;4.13;0.88;;;;;;;5.15;100.00;101343.47;5009382;28;20060;-60
2024/01/29 08:06:31;;;;;;;7.88;0.98;;;;;;;5.17;100.00;101356.88;5009373;28;20504;-60
2024/01/29 08:08:58;;;;;;;3.00;0.70;;;;;;;5.14;100.00;101346.50;5005188;28;20046;-59
2024/01/29 08:11:26;;;;;;;2.95;0.55;;;;;;;5.12;100.00;101356.94;5010105;28;20049;-59
2024/01/29 08:13:53;;;;;;;4.38;0.70;;;;;;;5.09;100.00;101352.88;5009932;28;20050;-60
2024/01/29 08:16:21;;;;;;;4.55;0.90;;;;;;;5.09;100.00;101358.34;5009772;28;20050;-61
2024/01/29 08:18:48;;;;;;;4.10;0.80;;;;;;;5.10;100.00;101348.19;5008749;28;20080;-60
2024/01/29 08:21:16;;;;;;;3.55;0.70;;;;;;;5.10;100.00;101349.03;4998155;28;20041;-60
2024/01/29 08:23:44;;;;;;;2.90;0.80;;;;;;;5.10;100.00;101351.78;5010058;28;20050;-60
2024/01/29 08:26:12;;;;;;;6.95;0.93;;;;;;;5.08;100.00;101355.94;5003553;28;20492;-60
2024/01/29 08:28:39;;;;;;;5.88;1.20;;;;;;;5.06;100.00;101358.94;5007711;28;20054;-60
2024/01/29 08:31:09;;;;;;;2.30;0.98;;;;;;;5.09;100.00;101363.03;5006798;28;20045;-60
2024/01/29 08:33:37;;;;;;;5.43;1.15;;;;;;;5.10;100.00;101373.72;5008256;28;20057;-60
2024/01/29 08:36:05;;;;;;;3.05;1.30;;;;;;;5.11;100.00;101366.31;5009013;28;20053;-60
2024/01/29 08:38:33;;;;;;;7.20;1.25;;;;;;;5.11;100.00;101372.59;5009329;28;20049;-60
2024/01/29 08:41:00;;;;;;;3.13;1.00;;;;;;;5.12;100.00;101376.16;5008783;28;20053;-60
2024/01/29 08:43:27;;;;;;;4.60;1.00;;;;;;;5.13;100.00;101377.81;5007399;28;20046;-61
2024/01/29 08:45:55;;;;;;;5.45;1.15;;;;;;;5.14;100.00;101379.44;5009171;28;20057;-62
2024/01/29 08:48:23;;;;;;;4.47;1.55;;;;;;;5.15;100.00;101379.16;4990023;28;20084;-61
2024/01/29 08:50:50;;;;;;;7.47;1.48;;;;;;;5.16;100.00;101378.06;4990820;28;20495;-60
2024/01/29 08:53:18;;;;;;;3.83;1.10;;;;;;;5.15;100.00;101373.66;5010197;28;20049;-60
2024/01/29 08:55:45;;;;;;;5.35;1.33;;;;;;;5.16;100.00;101369.81;4990382;28;20054;-61
2024/01/29 08:58:14;;;;;;;4.45;0.98;;;;;;;5.17;100.00;101376.09;5008917;28;20045;-60
2024/01/29 09:00:42;;;;;;;5.63;1.50;;;;;;;5.17;100.00;101376.91;5008936;28;20046;-61
2024/01/29 09:03:10;;;;;;;9.30;2.47;;;;;;;5.19;100.00;101366.47;4995762;28;20415;-61
2024/01/29 09:05:38;;;;;;;6.13;0.88;;;;;;;5.21;100.00;101367.00;5009099;28;20781;-60
2024/01/29 09:08:06;;;;;;;8.20;1.58;;;;;;;5.21;100.00;101369.75;5008757;28;20050;-61
2024/01/29 09:10:45;;;;;;;3.45;1.52;;;;;;;5.23;100.00;101364.78;5008776;28;20069;-62
2024/01/29 09:13:15;;;;;;;11.05;1.50;;;;;;;5.24;100.00;101368.34;5007958;28;20035;-61
2024/01/29 09:15:43;;;;;;;4.72;1.23;;;;;;;5.27;100.00;101368.56;5008638;28;20068;-61
2024/01/29 09:18:11;;;;;;;9.75;1.42;;;;;;;5.29;100.00;101371.84;5002339;28;20126;-61
2024/01/29 09:20:38;;;;;;;7.38;1.45;;;;;;;5.28;100.00;101361.13;5008224;28;20053;-61
2024/01/29 09:23:07;;;;;;;6.00;1.00;;;;;;;5.28;100.00;101364.72;5008683;28;20407;-61
2024/01/29 09:25:35;;;;;;;7.15;1.42;;;;;;;5.25;100.00;101368.03;5007933;28;20049;-60
2024/01/29 09:28:02;;;;;;;6.18;2.38;;;;;;;5.26;100.00;101358.69;5008348;28;20054;-62
2024/01/29 09:30:30;;;;;;;7.43;1.38;;;;;;;5.27;100.00;101351.28;5001672;28;20060;-61
2024/01/29 09:32:58;;;;;;;10.98;2.70;;;;;;;5.29;100.00;101357.28;5008780;28;20508;-60
2024/01/29 09:35:41;;;;;;;9.02;1.30;;;;;;;5.29;100.00;101351.81;4993712;28;20048;-61
2024/01/29 09:38:09;;;;;;;3.58;0.80;;;;;;;5.30;100.00;101354.25;5008325;28;20060;-61
2024/01/29 09:40:36;;;;;;;5.75;2.33;;;;;;;5.30;100.00;101353.41;5000817;28;20042;-61
2024/01/29 09:43:06;;;;;;;10.30;1.17;;;;;;;5.30;100.00;101356.97;5007751;28;20041;-61
2024/01/29 09:45:36;;;;;;;4.20;1.17;;;;;;;5.29;100.00;101360.84;5007756;28;20053;-61
2024/01/29 09:48:08;;;;;;;5.82;1.23;;;;;;;5.27;100.00;101357.56;4991212;28;20072;-61
2024/01/29 09:50:37;;;;;;;9.30;1.45;;;;;;;5.29;100.00;101355.38;5008575;28;20526;-61
2024/01/29 09:53:07;;;;;;;4.25;1.42;;;;;;;5.30;100.00;101354.25;4990415;28;20121;-61
2024/01/29 09:55:35;;;;;;;7.60;1.55;;;;;;;5.29;100.00;101349.88;5008191;28;20065;-61
2024/01/29 09:58:04;;;;;;;7.85;2.05;;;;;;;5.32;100.00;101359.44;5008141;28;20508;-61
2024/01/29 10:00:31;;;;;;;9.40;1.50;;;;;;;5.35;100.00;101356.91;5007361;28;20057;-60
2024/01/29 10:03:04;;;;;;;5.70;1.38;;;;;;;5.35;100.00;101350.59;5007450;28;20046;-61
2024/01/29 10:05:33;;;;;;;5.82;1.58;;;;;;;5.35;100.00;101345.94;4990398;28;20050;-61
2024/01/29 10:08:01;;;;;;;5.07;1.45;;;;;;;5.34;100.00;101349.81;4995648;28;20500;-61
2024/01/29 10:10:29;;;;;;;8.25;1.85;;;;;;;5.34;100.00;101344.31;4990641;28;20054;-61
2024/01/29 10:13:07;;;;;;;8.25;1.10;;;;;;;5.34;100.00;101344.31;5003963;28;20065;-61
2024/01/29 10:15:35;;;;;;;4.28;1.33;;;;;;;5.33;100.00;101341.84;5000174;28;20042;-61
2024/01/29 10:18:04;;;;;;;7.75;1.83;;;;;;;5.34;100.00;101333.34;4996853;28;20400;-61
2024/01/29 10:20:32;;;;;;;5.70;1.13;;;;;;;5.36;100.00;101331.09;4997111;28;20051;-60
2024/01/29 10:23:00;;;;;;;9.18;1.92;;;;;;;5.38;100.00;101336.28;5000257;28;20418;-61
2024/01/29 10:25:29;;;;;;;3.40;1.33;;;;;;;5.41;100.00;101339.25;5004051;28;20049;-60
2024/01/29 10:28:11;;;;;;;7.75;1.13;;;;;;;5.40;100.00;101343.09;5007424;28;20049;-60
2024/01/29 10:30:40;;;;;;;10.55;1.55;;;;;;;5.45;100.00;101325.78;5006913;28;20407;-61
2024/01/29 10:33:08;;;;;;;7.85;2.83;;;;;;;5.47;100.00;101332.59;5007969;28;20042;-60
2024/01/29 10:35:36;;;;;;;6.68;1.17;;;;;;;5.48;100.00;101342.44;4998066;28;20508;-61
2024/01/29 10:38:06;;;;;;;8.43;1.35;;;;;;;5.51;100.00;101355.59;5004870;28;20054;-61
2024/01/29 10:40:36;;;;;;;7.90;1.80;;;;;;;5.53;100.00;101361.59;4997704;28;20046;-62
2024/01/29 10:43:05;;;;;;;8.75;1.40;;;;;;;5.55;100.00;101372.31;5007488;28;20045;-61
2024/01/29 10:45:39;;;;;;;6.65;1.45;;;;;;;5.56;100.00;101368.41;5003421;28;20042;-61
2024/01/29 10:48:15;;;;;;;3.83;1.08;;;;;;;5.54;100.00;101355.00;5003937;28;20547;-61
2024/01/29 10:50:46;;;;;;;5.57;1.13;;;;;;;5.52;100.00;101368.22;5007318;28;20062;-61
2024/01/29 10:53:16;;;;;;;6.90;1.33;;;;;;;5.50;100.00;101359.47;5007406;28;20500;-62
2024/01/29 10:55:44;;;;;;;4.38;0.77;;;;;;;5.52;100.00;101361.91;5007516;28;20053;-63
2024/01/29 10:58:15;;;;;;;9.65;1.75;;;;;;;5.52;100.00;101367.41;4989676;28;20472;-62
2024/01/29 11:00:44;;;;;;;5.07;1.90;;;;;;;5.53;100.00;101372.56;4996714;28;20601;-62
2024/01/29 11:03:12;;;;;;;5.18;0.80;;;;;;;5.52;100.00;101370.97;4977617;28;20773;-62
2024/01/29 11:05:53;;;;;;;2.78;1.05;;;;;;;5.51;100.00;101368.50;5006968;28;20389;-62
2024/01/29 11:08:24;;;;;;;5.85;1.30;;;;;;;5.52;100.00;101364.66;4989745;28;20057;-62
2024/01/29 11:10:52;;;;;;;7.78;1.10;;;;;;;5.54;100.00;101374.22;5005250;28;20050;-61
2024/01/29 11:13:21;;;;;;;5.03;1.13;;;;;;;5.57;100.00;101377.47;4997409;28;20365;-61
2024/01/29 11:15:48;;;;;;;8.85;1.00;;;;;;;5.59;100.00;101372.53;5005525;28;20034;-60
2024/01/29 11:18:16;;;;;;;9.73;1.10;;;;;;;5.61;100.00;101371.13;5007641;28;20057;-60
2024/01/29 11:20:45;;;;;;;6.40;1.00;;;;;;;5.61;100.00;101382.09;5007988;28;20140;-61
2024/01/29 11:23:14;;;;;;;7.20;1.42;;;;;;;5.60;100.00;101379.63;4986495;28;20061;-61
2024/01/29 11:26:00;;;;;;;8.30;1.63;;;;;;;5.61;100.00;101362.06;4980015;28;20463;-61
2024/01/29 11:28:28;;;;;;;5.80;1.48;;;;;;;5.61;100.00;101364.81;5006956;28;20065;-61
2024/01/29 11:30:55;;;;;;;6.88;1.50;;;;;;;5.64;100.00;101362.25;5005478;28;20053;-62
2024/01/29 11:33:24;;;;;;;11.63;1.70;;;;;;;5.64;100.00;101358.72;5007040;28;20468;-61